sensor_id;sensor_type;location;lat;lon;timestamp;P1;durP1;ratioP1;P2;durP2;ratioP2
24301;SDS011;12421;49.732;20.078;2023-01-16T00:20:04;9.90;;;6.40;;
24301;SDS011;12421;49.732;20.078;2023-01-16T01:02:48;13.30;;;7.70;;
24301;SDS011;12421;49.732;20.078;2023-01-16T01:13:16;11.10;;;6.80;;
24301;SDS011;12421;49.732;20.078;2023-01-16T01:23:52;10.30;;;6.50;;
24301;SDS011;12421;49.732;20.078;2023-01-16T01:44:56;11.60;;;6.80;;
24301;SDS011;12421;49.732;20.078;2023-01-16T01:56:11;12.20;;;7.20;;
24301;SDS011;12421;49.732;20.078;2023-01-16T02:06:55;14.10;;;6.40;;
24301;SDS011;12421;49.732;20.078;2023-01-16T03:01:12;13.90;;;8.80;;
24301;SDS011;12421;49.732;20.078;2023-01-16T03:11:21;17.00;;;9.50;;
24301;SDS011;12421;49.732;20.078;2023-01-16T04:27:17;13.60;;;8.70;;
24301;SDS011;12421;49.732;20.078;2023-01-16T04:37:48;12.40;;;8.00;;
24301;SDS011;12421;49.732;20.078;2023-01-16T04:49:13;10.80;;;6.60;;
24301;SDS011;12421;49.732;20.078;2023-01-16T04:59:26;12.00;;;7.60;;
24301;SDS011;12421;49.732;20.078;2023-01-16T05:10:09;11.80;;;6.90;;
24301;SDS011;12421;49.732;20.078;2023-01-16T05:20:22;10.20;;;6.70;;
24301;SDS011;12421;49.732;20.078;2023-01-16T05:30:32;10.10;;;6.90;;
24301;SDS011;12421;49.732;20.078;2023-01-16T05:40:40;9.80;;;6.80;;
24301;SDS011;12421;49.732;20.078;2023-01-16T05:51:26;9.90;;;6.80;;
24301;SDS011;12421;49.732;20.078;2023-01-16T06:01:36;12.20;;;7.20;;
24301;SDS011;12421;49.732;20.078;2023-01-16T06:11:56;9.70;;;6.50;;
24301;SDS011;12421;49.732;20.078;2023-01-16T07:05:30;16.90;;;10.90;;
24301;SDS011;12421;49.732;20.078;2023-01-16T07:15:54;16.90;;;10.80;;
24301;SDS011;12421;49.732;20.078;2023-01-16T07:49:33;28.90;;;20.90;;
24301;SDS011;12421;49.732;20.078;2023-01-16T08:34:19;44.70;;;30.60;;
24301;SDS011;12421;49.732;20.078;2023-01-16T08:45:34;43.60;;;30.90;;
24301;SDS011;12421;49.732;20.078;2023-01-16T09:07:58;51.20;;;33.70;;
24301;SDS011;12421;49.732;20.078;2023-01-16T09:18:16;41.10;;;28.10;;
24301;SDS011;12421;49.732;20.078;2023-01-16T09:40:09;24.00;;;15.70;;
24301;SDS011;12421;49.732;20.078;2023-01-16T09:51:18;19.00;;;12.80;;
24301;SDS011;12421;49.732;20.078;2023-01-16T10:01:54;17.10;;;11.80;;
24301;SDS011;12421;49.732;20.078;2023-01-16T10:12:45;13.10;;;8.10;;
24301;SDS011;12421;49.732;20.078;2023-01-16T10:34:03;11.40;;;9.10;;
24301;SDS011;12421;49.732;20.078;2023-01-16T10:44:54;11.10;;;7.50;;
24301;SDS011;12421;49.732;20.078;2023-01-16T10:56:04;10.20;;;6.50;;
24301;SDS011;12421;49.732;20.078;2023-01-16T11:17:51;10.40;;;7.00;;
24301;SDS011;12421;49.732;20.078;2023-01-16T11:39:26;11.80;;;8.10;;
24301;SDS011;12421;49.732;20.078;2023-01-16T12:23:13;4.80;;;2.70;;
24301;SDS011;12421;49.732;20.078;2023-01-16T13:05:33;4.80;;;3.10;;
24301;SDS011;12421;49.732;20.078;2023-01-16T13:48:00;5.70;;;3.30;;
24301;SDS011;12421;49.732;20.078;2023-01-16T13:58:20;6.50;;;3.80;;
24301;SDS011;12421;49.732;20.078;2023-01-16T14:19:22;6.70;;;4.50;;
24301;SDS011;12421;49.732;20.078;2023-01-16T14:29:38;9.90;;;6.70;;
24301;SDS011;12421;49.732;20.078;2023-01-16T14:40:26;10.30;;;6.90;;
24301;SDS011;12421;49.732;20.078;2023-01-16T14:51:14;13.10;;;8.00;;
24301;SDS011;12421;49.732;20.078;2023-01-16T15:02:05;10.00;;;6.80;;
24301;SDS011;12421;49.732;20.078;2023-01-16T15:24:16;18.30;;;12.60;;
24301;SDS011;12421;49.732;20.078;2023-01-16T15:57:34;32.10;;;20.30;;
24301;SDS011;12421;49.732;20.078;2023-01-16T16:07:46;76.90;;;51.60;;
24301;SDS011;12421;49.732;20.078;2023-01-16T16:18:32;65.10;;;36.30;;
24301;SDS011;12421;49.732;20.078;2023-01-16T16:28:56;57.00;;;35.80;;
24301;SDS011;12421;49.732;20.078;2023-01-16T16:50:39;54.80;;;33.90;;
24301;SDS011;12421;49.732;20.078;2023-01-16T17:01:08;45.90;;;29.40;;
24301;SDS011;12421;49.732;20.078;2023-01-16T17:11:20;64.40;;;39.20;;
24301;SDS011;12421;49.732;20.078;2023-01-16T17:21:34;69.30;;;44.70;;
24301;SDS011;12421;49.732;20.078;2023-01-16T17:42:58;47.40;;;28.80;;
24301;SDS011;12421;49.732;20.078;2023-01-16T17:53:44;44.40;;;26.70;;
24301;SDS011;12421;49.732;20.078;2023-01-16T18:04:12;38.20;;;23.20;;
24301;SDS011;12421;49.732;20.078;2023-01-16T18:26:09;45.40;;;26.40;;
24301;SDS011;12421;49.732;20.078;2023-01-16T18:36:14;49.90;;;30.50;;
24301;SDS011;12421;49.732;20.078;2023-01-16T18:46:31;36.40;;;21.00;;
24301;SDS011;12421;49.732;20.078;2023-01-16T18:57:11;30.40;;;18.10;;
24301;SDS011;12421;49.732;20.078;2023-01-16T19:07:40;27.10;;;15.90;;
24301;SDS011;12421;49.732;20.078;2023-01-16T19:17:58;36.10;;;21.30;;
24301;SDS011;12421;49.732;20.078;2023-01-16T19:28:06;31.10;;;18.10;;
24301;SDS011;12421;49.732;20.078;2023-01-16T19:38:27;32.80;;;18.40;;
24301;SDS011;12421;49.732;20.078;2023-01-16T19:48:36;22.40;;;13.80;;
24301;SDS011;12421;49.732;20.078;2023-01-16T19:58:52;29.70;;;19.60;;
24301;SDS011;12421;49.732;20.078;2023-01-16T20:09:03;26.40;;;16.10;;
24301;SDS011;12421;49.732;20.078;2023-01-16T20:19:11;29.70;;;18.40;;
24301;SDS011;12421;49.732;20.078;2023-01-16T20:29:41;29.60;;;19.10;;
24301;SDS011;12421;49.732;20.078;2023-01-16T20:40:30;37.90;;;22.40;;
24301;SDS011;12421;49.732;20.078;2023-01-16T20:50:41;32.20;;;18.90;;
24301;SDS011;12421;49.732;20.078;2023-01-16T21:00:59;24.50;;;13.30;;
24301;SDS011;12421;49.732;20.078;2023-01-16T21:11:15;26.20;;;15.80;;
24301;SDS011;12421;49.732;20.078;2023-01-16T21:21:38;25.20;;;14.00;;
24301;SDS011;12421;49.732;20.078;2023-01-16T21:31:52;22.20;;;13.00;;
24301;SDS011;12421;49.732;20.078;2023-01-16T21:42:15;25.90;;;12.60;;
24301;SDS011;12421;49.732;20.078;2023-01-16T21:52:50;29.10;;;16.60;;
24301;SDS011;12421;49.732;20.078;2023-01-16T22:02:57;21.30;;;12.10;;
24301;SDS011;12421;49.732;20.078;2023-01-16T22:13:07;25.90;;;14.10;;
24301;SDS011;12421;49.732;20.078;2023-01-16T22:23:29;27.90;;;14.50;;
24301;SDS011;12421;49.732;20.078;2023-01-16T22:33:34;25.80;;;13.00;;
24301;SDS011;12421;49.732;20.078;2023-01-16T22:43:39;29.80;;;15.90;;
24301;SDS011;12421;49.732;20.078;2023-01-16T22:54:08;29.70;;;17.20;;
24301;SDS011;12421;49.732;20.078;2023-01-16T23:04:48;37.60;;;20.90;;
24301;SDS011;12421;49.732;20.078;2023-01-16T23:36:12;36.80;;;16.30;;
24301;SDS011;12421;49.732;20.078;2023-01-16T23:46:57;30.30;;;16.60;;
24301;SDS011;12421;49.732;20.078;2023-01-16T23:57:59;33.60;;;18.70;;
